»·PEaware :: N458ND KTUS-KFLG

N458ND :: KTUS-KFLG

FLIGHT INFORMATION

Flight Status: Arrived
Operator: Privately registered:
United States
More flights under this callsign
Pilot: Benjamin S. (30850)
Aircraft: PIPER PA-28R-201 ARROW
(P28R)
More flights by this aircraft type
Origin: KTUS Tucson Intl
United States
Destination: KFLG Flagstaff Pulliam
United States
More flights between these airports :: More routes between these airports
Route: +
File this flight plan on PilotEdge
Remarks:
Altitude:
(Current/Filed)
0ft
Speed:
(Current/Filed)
0kts
Departed: 22-Aug-20 01:19 PM
Arrived: 22-Aug-20 02:26 PM
Distance/Time
Traveled:
185nm/1:07
Distance/Time
To Go:
Arrived

Flight Plot

Page will automatically refresh every two minutes.

Flight plan parsing failed; only flown route is shown


Map Options




Map Legend


Flown Route
Filed Route
Departure Airport
Arrival Airport
Navaid (VOR, NDB)
Fix

Horizontal Profiles

Position Reports

Time Latitude Longitude Heading Altitude Ground
Speed
22-Aug-20 13:18 32.188524 -110.929123 321 5212ft 90kts
22-Aug-20 13:19 32.207851 -110.947986 320 5999ft 90kts
22-Aug-20 13:20 32.227645 -110.968682 317 6465ft 110kts
22-Aug-20 13:21 32.257017 -110.987165 338 6522ft 129kts
22-Aug-20 13:22 32.288763 -111.006333 309 6516ft 133kts
22-Aug-20 13:23 32.311442 -111.041490 309 6506ft 134kts
22-Aug-20 13:24 32.334540 -111.076538 310 6498ft 135kts
22-Aug-20 13:25 32.358161 -111.111923 305 6492ft 139kts
22-Aug-20 13:26 32.382284 -111.148086 305 6490ft 140kts
22-Aug-20 13:27 32.406583 -111.184441 305 6490ft 140kts
22-Aug-20 13:28 32.430748 -111.220579 305 6490ft 140kts
22-Aug-20 13:28 32.450958 -111.250810 305 6490ft 140kts
22-Aug-20 13:29 32.475270 -111.287214 305 6490ft 140kts
22-Aug-20 13:31 32.503515 -111.329556 305 6490ft 140kts
22-Aug-20 13:32 32.527661 -111.365801 305 6490ft 140kts
22-Aug-20 13:32 32.547802 -111.396144 305 6489ft 140kts
22-Aug-20 13:33 32.609944 -111.489824 311 6484ft 139kts
22-Aug-20 13:34 32.706702 -111.635526 309 6474ft 141kts
22-Aug-20 13:35 32.771302 -111.734392 308 6472ft 141kts
22-Aug-20 13:36 32.795555 -111.771269 309 6472ft 142kts
22-Aug-20 13:37 32.819940 -111.808323 309 6472ft 142kts
22-Aug-20 13:38 32.844402 -111.845523 309 6472ft 142kts
22-Aug-20 13:39 32.868830 -111.882702 309 6472ft 142kts
22-Aug-20 13:45 33.032352 -112.017919 8 5401ft 157kts
22-Aug-20 13:46 33.072254 -112.009764 10 4417ft 135kts
22-Aug-20 13:47 33.109752 -112.005994 357 4389ft 133kts
22-Aug-20 13:48 33.147910 -112.002457 2 4530ft 134kts
22-Aug-20 13:49 33.186421 -111.999464 1 4558ft 142kts
22-Aug-20 13:50 33.226284 -111.996240 2 4554ft 144kts
22-Aug-20 13:51 33.266245 -111.992772 2 4552ft 144kts
22-Aug-20 13:52 33.306225 -111.989056 2 4551ft 144kts
22-Aug-20 13:53 33.346055 -111.988095 334 4530ft 143kts
22-Aug-20 13:54 33.379683 -112.012304 325 4530ft 140kts
22-Aug-20 13:55 33.414625 -112.033560 332 4512ft 142kts
22-Aug-20 13:56 33.449280 -112.055405 319 4508ft 140kts
22-Aug-20 13:57 33.487183 -112.047657 25 4435ft 148kts
22-Aug-20 13:58 33.522787 -112.024630 31 4532ft 145kts
22-Aug-20 13:59 33.560803 -112.013572 353 4584ft 142kts
22-Aug-20 14:00 33.600063 -112.019631 348 4688ft 142kts
22-Aug-20 14:01 33.639381 -112.029059 346 4672ft 148kts
22-Aug-20 14:02 33.680327 -112.032432 355 4638ft 151kts
22-Aug-20 14:03 33.712809 -112.037636 344 4494ft 150kts
22-Aug-20 14:04 33.738997 -112.045717 344 4478ft 146kts
22-Aug-20 14:05 33.784073 -112.056595 346 4606ft 142kts
22-Aug-20 14:06 33.829849 -112.074147 340 4597ft 146kts
22-Aug-20 14:07 33.880793 -112.091507 353 5072ft 125kts
22-Aug-20 14:08 33.935762 -112.067048 37 5605ft 139kts
22-Aug-20 14:09 33.989793 -112.016607 43 5649ft 145kts
22-Aug-20 14:10 34.010022 -111.941832 103 5710ft 138kts
22-Aug-20 14:11 33.995454 -111.875582 110 6527ft 112kts
22-Aug-20 14:12 33.976521 -111.815133 79 7286ft 113kts
22-Aug-20 14:13 33.989271 -111.760699 53 8510ft 97kts
22-Aug-20 14:14 34.030904 -111.740234 17 9550ft 98kts
22-Aug-20 14:15 34.083129 -111.725962 13 9757ft 128kts
22-Aug-20 14:16 34.267850 -111.676469 19 9417ft 139kts
22-Aug-20 14:17 34.491201 -111.684390 8 9758ft 145kts
22-Aug-20 14:18 34.814419 -111.675935 4 9749ft 144kts
22-Aug-20 14:19 34.992314 -111.673766 1 9724ft 152kts
22-Aug-20 14:20 35.035642 -111.668668 7 9326ft 156kts
22-Aug-20 14:21 35.065705 -111.682793 314 8143ft 95kts
22-Aug-20 14:22 35.085038 -111.704478 320 7930ft 88kts
22-Aug-20 14:23 35.107876 -111.701890 27 7631ft 87kts
22-Aug-20 14:24 35.126061 -111.684240 35 7247ft 75kts
22-Aug-20 14:25 35.137083 -111.673484 324 7013ft 12kts
22-Aug-20 14:26 35.137234 -111.674290 223 7013ft 11kts
22-Aug-20 14:27 35.134279 -111.677601 282 7013ft 9kts
22-Aug-20 14:28 35.134330 -111.678327 221 7013ft 0kts

Navigation Log

Ident Type
Flight plan parsing failed, navigation log unavailable